Terminal Aerodrome Forecast
Issued by NWS Upton, NY

Home | Current Version | Previous Version | Text Only | Print | Product List | Glossary On
Versions: 1 2 3 4 5 6 7 8 9 10 11 12 13 14 15 16 17 18 19 20 21 22 23 24 25 26 27 28 29 30 31 32 33
000
FTUS41 KOKX 221733
TAFEWR
TAF
KEWR 221733Z 2218/2324 24005KT P6SM BKN070
     FM221900 19005KT P6SM SCT070 BKN100
     FM230200 VRB03KT P6SM BKN250
     FM230900 20003KT 4SM BR SCT005 BKN250
     FM231200 20003KT 1/2SM FG SCT005 OVC025
     FM231500 22006KT 4SM BR OVC025=

USA.gov is the U.S. government's official web portal to all federal, state and local government web resources and services.